createdAt,value
2023-04-15T00:00:03.414Z,1923.00
2023-04-15T00:01:03.418Z,1919.00
2023-04-15T00:02:03.552Z,1920.00
2023-04-15T00:03:03.655Z,1920.00
2023-04-15T00:04:03.663Z,1916.00
2023-04-15T00:05:03.627Z,1913.00
2023-04-15T00:06:03.698Z,1909.00
2023-04-15T00:07:03.693Z,1905.00
2023-04-15T00:08:03.733Z,1904.00
2023-04-15T00:09:03.930Z,1902.00
2023-04-15T00:10:03.834Z,1895.00
2023-04-15T00:11:03.889Z,1891.00
2023-04-15T00:12:03.908Z,1889.00
2023-04-15T00:13:03.960Z,1892.00
2023-04-15T00:14:04.029Z,1890.00
2023-04-15T00:15:04.063Z,1890.00
2023-04-15T00:16:04.056Z,1890.00
2023-04-15T00:17:04.063Z,1887.00
2023-04-15T00:18:03.996Z,1886.00
2023-04-15T00:19:03.988Z,1884.00
2023-04-15T00:20:03.985Z,1885.00
2023-04-15T00:21:03.942Z,1882.00
2023-04-15T00:22:03.923Z,1883.00
2023-04-15T00:23:04.016Z,1883.00
2023-04-15T00:24:03.891Z,1881.00
2023-04-15T00:25:03.905Z,1879.00
2023-04-15T00:26:03.949Z,1875.00
2023-04-15T00:27:03.969Z,1866.00
2023-04-15T00:28:04.120Z,1866.00
2023-04-15T00:29:04.067Z,1867.00
2023-04-15T00:30:04.110Z,1864.00
2023-04-15T00:31:04.190Z,1862.00
2023-04-15T00:32:04.177Z,1862.00
2023-04-15T00:33:04.228Z,1860.00
2023-04-15T00:34:04.250Z,1858.00
2023-04-15T00:35:04.287Z,1858.00
2023-04-15T00:36:04.339Z,1857.00
2023-04-15T00:37:04.393Z,1855.00
2023-04-15T00:38:04.430Z,1854.00
2023-04-15T00:39:04.467Z,1854.00
2023-04-15T00:40:04.540Z,1850.00
2023-04-15T00:41:04.553Z,1850.00
2023-04-15T00:42:04.591Z,1845.00
2023-04-15T00:43:04.627Z,1842.00
2023-04-15T00:44:04.684Z,1839.00
2023-04-15T00:45:04.702Z,1835.00
2023-04-15T00:46:04.776Z,1831.00
2023-04-15T00:47:04.788Z,1829.00
2023-04-15T00:48:04.886Z,1832.00
2023-04-15T00:49:04.891Z,1834.00
2023-04-15T00:50:05.011Z,1835.00
2023-04-15T00:51:05.027Z,1835.00
2023-04-15T00:52:05.047Z,1835.00
2023-04-15T00:53:05.112Z,1832.00
2023-04-15T00:54:05.157Z,1828.00
2023-04-15T00:55:05.189Z,1819.00
2023-04-15T00:56:05.230Z,1817.00
2023-04-15T00:57:05.261Z,1813.00
2023-04-15T00:58:05.320Z,1811.00
2023-04-15T00:59:05.358Z,1812.00
2023-04-15T01:00:05.405Z,1809.00
2023-04-15T01:01:05.455Z,1805.00
2023-04-15T01:02:05.614Z,1800.00
2023-04-15T01:03:05.646Z,1796.00
2023-04-15T01:04:05.633Z,1791.00
2023-04-15T01:05:05.664Z,1789.00
2023-04-15T01:06:05.669Z,1787.00
2023-04-15T01:07:05.707Z,1790.00
2023-04-15T01:08:05.747Z,1782.00
2023-04-15T01:09:05.802Z,1781.00
2023-04-15T01:10:05.852Z,1781.00
2023-04-15T01:11:05.880Z,1785.00
2023-04-15T01:12:06.514Z,1787.00
2023-04-15T01:13:05.946Z,1786.00
2023-04-15T01:14:05.999Z,1788.00
2023-04-15T01:15:06.058Z,1787.00
2023-04-15T01:16:06.137Z,1784.00
2023-04-15T01:17:06.140Z,1785.00
2023-04-15T01:18:06.164Z,1785.00
2023-04-15T01:19:06.220Z,1781.00
2023-04-15T01:20:07.032Z,1778.00
2023-04-15T01:21:06.296Z,1773.00
2023-04-15T01:22:06.350Z,1772.00
2023-04-15T01:23:06.425Z,1770.00
2023-04-15T01:24:06.459Z,1769.00
2023-04-15T01:25:06.518Z,1766.00
2023-04-15T01:26:06.544Z,1763.00
2023-04-15T01:27:06.605Z,1760.00
2023-04-15T01:28:06.654Z,1759.00
2023-04-15T01:29:06.707Z,1752.00
2023-04-15T01:30:06.753Z,1751.00
2023-04-15T01:31:06.831Z,1751.00
2023-04-15T01:32:06.845Z,1752.00
2023-04-15T01:33:06.888Z,1751.00
2023-04-15T01:34:06.940Z,1749.00
2023-04-15T01:35:06.981Z,1747.00
2023-04-15T01:36:07.044Z,1746.00
2023-04-15T01:37:07.079Z,1743.00
2023-04-15T01:38:07.118Z,1743.00
2023-04-15T01:39:07.169Z,1740.00
2023-04-15T01:40:07.195Z,1736.00
2023-04-15T01:41:07.221Z,1737.00
2023-04-15T01:42:07.256Z,1740.00
2023-04-15T01:43:07.306Z,1740.00
2023-04-15T01:44:07.348Z,1738.00
2023-04-15T01:45:07.543Z,1737.00
2023-04-15T01:46:07.427Z,1738.00
2023-04-15T01:47:07.446Z,1740.00
2023-04-15T01:48:07.508Z,1739.00
2023-04-15T01:49:07.545Z,1735.00
2023-04-15T01:50:07.579Z,1737.00
2023-04-15T01:51:07.626Z,1736.00
2023-04-15T01:52:07.656Z,1733.00
2023-04-15T01:53:07.695Z,1731.00
2023-04-15T01:54:07.863Z,1730.00
2023-04-15T01:55:07.781Z,1731.00
2023-04-15T01:56:07.840Z,1732.00
2023-04-15T01:57:07.884Z,1731.00
2023-04-15T01:58:07.927Z,1728.00
2023-04-15T01:59:07.987Z,1729.00
2023-04-15T02:00:08.030Z,1725.00
2023-04-15T02:01:08.123Z,1720.00
2023-04-15T02:02:08.208Z,1714.00
2023-04-15T02:03:08.179Z,1711.00
2023-04-15T02:04:08.333Z,1708.00
2023-04-15T02:05:08.197Z,1705.00
2023-04-15T02:06:08.231Z,1704.00
2023-04-15T02:07:08.258Z,1703.00
2023-04-15T02:08:08.316Z,1703.00
2023-04-15T02:09:08.369Z,1702.00
2023-04-15T02:10:08.395Z,1698.00
2023-04-15T02:11:08.465Z,1697.00
2023-04-15T02:12:08.546Z,1696.00
2023-04-15T02:13:08.549Z,1693.00
2023-04-15T02:14:08.603Z,1689.00
2023-04-15T02:15:08.656Z,1686.00
2023-04-15T02:16:08.750Z,1684.00
2023-04-15T02:17:08.748Z,1685.00
2023-04-15T02:18:08.790Z,1687.00
2023-04-15T02:19:08.838Z,1685.00
2023-04-15T02:20:08.869Z,1685.00
2023-04-15T02:21:08.927Z,1688.00
2023-04-15T02:22:08.961Z,1691.00
2023-04-15T02:23:08.994Z,1689.00
2023-04-15T02:24:09.035Z,1687.00
2023-04-15T02:25:09.070Z,1684.00
2023-04-15T02:26:09.120Z,1683.00
2023-04-15T02:27:09.148Z,1685.00
2023-04-15T02:28:09.193Z,1684.00
2023-04-15T02:29:09.217Z,1684.00
2023-04-15T02:30:09.286Z,1683.00
2023-04-15T02:31:09.288Z,1677.00
2023-04-15T02:32:09.398Z,1675.00
2023-04-15T02:33:09.384Z,1672.00
2023-04-15T02:34:09.439Z,1669.00
2023-04-15T02:35:09.444Z,1669.00
2023-04-15T02:36:09.500Z,1668.00
2023-04-15T02:37:09.540Z,1667.00
2023-04-15T02:38:09.577Z,1665.00
2023-04-15T02:39:09.623Z,1663.00
2023-04-15T02:40:09.680Z,1665.00
2023-04-15T02:41:09.683Z,1665.00
2023-04-15T02:42:09.737Z,1665.00
2023-04-15T02:43:09.769Z,1658.00
2023-04-15T02:44:11.351Z,1654.00
2023-04-15T02:45:09.864Z,1657.00
2023-04-15T02:46:09.881Z,1657.00
2023-04-15T02:47:09.891Z,1655.00
2023-04-15T02:48:09.963Z,1656.00
2023-04-15T02:49:09.993Z,1655.00
2023-04-15T02:50:10.028Z,1656.00
2023-04-15T02:51:10.055Z,1655.00
2023-04-15T02:52:10.081Z,1654.00
2023-04-15T02:53:10.132Z,1652.00
2023-04-15T02:54:10.185Z,1649.00
2023-04-15T02:55:10.239Z,1643.00
2023-04-15T02:56:10.252Z,1638.00
2023-04-15T02:57:10.293Z,1639.00
2023-04-15T02:58:10.330Z,1636.00
2023-04-15T02:59:10.381Z,1631.00
2023-04-15T03:00:10.416Z,1625.00
2023-04-15T03:01:10.515Z,1621.00
2023-04-15T03:02:10.544Z,1619.00
2023-04-15T03:03:10.707Z,1619.00
2023-04-15T03:04:10.677Z,1616.00
2023-04-15T03:05:10.647Z,1617.00
2023-04-15T03:06:10.683Z,1616.00
2023-04-15T03:07:10.723Z,1616.00
2023-04-15T03:08:10.767Z,1615.00
2023-04-15T03:09:10.795Z,1612.00
2023-04-15T03:10:10.814Z,1609.00
2023-04-15T03:11:10.850Z,1608.00
2023-04-15T03:12:10.879Z,1609.00
2023-04-15T03:13:10.924Z,1610.00
2023-04-15T03:14:10.946Z,1610.00
2023-04-15T03:15:10.985Z,1608.00
2023-04-15T03:16:11.045Z,1606.00
2023-04-15T03:17:11.041Z,1606.00
2023-04-15T03:18:11.087Z,1606.00
2023-04-15T03:19:11.130Z,1604.00
2023-04-15T03:20:11.226Z,1605.00
2023-04-15T03:21:11.216Z,1603.00
2023-04-15T03:22:11.262Z,1603.00
2023-04-15T03:23:11.293Z,1602.00
2023-04-15T03:24:11.316Z,1603.00
2023-04-15T03:25:11.364Z,1598.00
2023-04-15T03:26:11.387Z,1595.00
2023-04-15T03:27:11.405Z,1590.00
2023-04-15T03:28:11.465Z,1587.00
2023-04-15T03:29:11.507Z,1584.00
2023-04-15T03:30:11.529Z,1583.00
2023-04-15T03:31:11.562Z,1581.00
2023-04-15T03:32:11.588Z,1580.00
2023-04-15T03:33:11.594Z,1579.00
2023-04-15T03:34:11.646Z,1579.00
2023-04-15T03:35:11.679Z,1578.00
2023-04-15T03:36:12.579Z,1578.00
2023-04-15T03:37:11.749Z,1574.00
2023-04-15T03:38:11.806Z,1571.00
2023-04-15T03:39:11.819Z,1570.00
2023-04-15T03:40:11.849Z,1573.00
2023-04-15T03:41:11.886Z,1574.00
2023-04-15T03:42:11.910Z,1572.00
2023-04-15T03:43:12.088Z,1572.00
2023-04-15T03:44:12.004Z,1569.00
2023-04-15T03:45:12.040Z,1567.00
2023-04-15T03:46:12.080Z,1566.00
2023-04-15T03:47:12.076Z,1566.00
2023-04-15T03:48:17.836Z,1564.00
2023-04-15T03:49:13.070Z,1563.00
2023-04-15T03:50:12.051Z,1560.00
2023-04-15T03:51:12.041Z,1559.00
2023-04-15T03:52:12.031Z,1558.00
2023-04-15T03:53:12.140Z,1554.00
2023-04-15T03:54:11.986Z,1554.00
2023-04-15T03:55:11.997Z,1548.00
2023-04-15T03:56:11.970Z,1549.00
2023-04-15T03:57:11.960Z,1549.00
2023-04-15T03:58:11.953Z,1551.00
2023-04-15T03:59:11.967Z,1549.00
2023-04-15T04:00:11.996Z,1549.00
2023-04-15T04:01:12.032Z,1550.00
2023-04-15T04:02:12.128Z,1550.00
2023-04-15T04:03:12.281Z,1547.00
2023-04-15T04:04:12.173Z,1544.00
2023-04-15T04:05:12.158Z,1540.00
2023-04-15T04:06:12.178Z,1537.00
2023-04-15T04:07:12.189Z,1534.00
2023-04-15T04:08:12.191Z,1534.00
2023-04-15T04:09:12.225Z,1535.00
2023-04-15T04:10:12.236Z,1534.00
2023-04-15T04:11:12.253Z,1536.00
2023-04-15T04:12:12.286Z,1535.00
2023-04-15T04:13:12.291Z,1532.00
2023-04-15T04:14:12.327Z,1533.00
2023-04-15T04:15:12.352Z,1528.00
2023-04-15T04:16:12.539Z,1528.00
2023-04-15T04:17:12.442Z,1528.00
2023-04-15T04:18:12.452Z,1526.00
2023-04-15T04:19:12.453Z,1522.00
2023-04-15T04:20:12.455Z,1525.00
2023-04-15T04:21:12.443Z,1526.00
2023-04-15T04:22:12.481Z,1525.00
2023-04-15T04:23:12.428Z,1522.00
2023-04-15T04:24:12.436Z,1519.00
2023-04-15T04:25:12.428Z,1517.00
2023-04-15T04:26:12.460Z,1518.00
2023-04-15T04:27:13.090Z,1516.00
2023-04-15T04:28:12.495Z,1517.00
2023-04-15T04:29:12.508Z,1517.00
2023-04-15T04:30:12.551Z,1517.00
2023-04-15T04:31:12.583Z,1515.00
2023-04-15T04:32:12.634Z,1511.00
2023-04-15T04:33:13.097Z,1511.00
2023-04-15T04:34:12.582Z,1511.00
2023-04-15T04:35:12.619Z,1508.00
2023-04-15T04:36:12.661Z,1507.00
2023-04-15T04:37:12.662Z,1504.00
2023-04-15T04:38:12.669Z,1501.00
2023-04-15T04:39:12.660Z,1498.00
2023-04-15T04:40:12.677Z,1501.00
2023-04-15T04:41:12.683Z,1498.00
2023-04-15T04:42:12.696Z,1501.00
2023-04-15T04:43:12.671Z,1501.00
2023-04-15T04:44:12.684Z,1499.00
2023-04-15T04:45:12.677Z,1494.00
2023-04-15T04:46:12.723Z,1495.00
2023-04-15T04:47:12.718Z,1495.00
2023-04-15T04:48:12.699Z,1490.00
2023-04-15T04:49:12.684Z,1490.00
2023-04-15T04:50:12.675Z,1491.00
2023-04-15T04:51:13.602Z,1491.00
2023-04-15T04:52:12.677Z,1494.00
2023-04-15T04:53:12.677Z,1493.00
2023-04-15T04:54:12.658Z,1489.00
2023-04-15T04:55:12.650Z,1485.00
2023-04-15T04:56:12.635Z,1483.00
2023-04-15T04:57:12.614Z,1478.00
2023-04-15T04:58:12.628Z,1477.00
2023-04-15T04:59:12.636Z,1475.00
2023-04-15T05:00:12.630Z,1476.00
2023-04-15T05:01:12.650Z,1473.00
2023-04-15T05:02:12.710Z,1475.00
2023-04-15T05:03:12.740Z,1475.00
2023-04-15T05:04:12.712Z,1477.00
2023-04-15T05:05:12.586Z,1474.00
2023-04-15T05:06:12.584Z,1475.00
2023-04-15T05:07:12.588Z,1477.00
2023-04-15T05:08:12.562Z,1475.00
2023-04-15T05:09:12.577Z,1474.00
2023-04-15T05:10:12.568Z,1475.00
2023-04-15T05:11:12.612Z,1475.00
2023-04-15T05:12:12.543Z,1475.00
2023-04-15T05:13:12.556Z,1468.00
2023-04-15T05:14:12.542Z,1465.00
2023-04-15T05:15:12.550Z,1463.00
2023-04-15T05:16:12.604Z,1460.00
2023-04-15T05:17:12.527Z,1456.00
2023-04-15T05:18:12.539Z,1457.00
2023-04-15T05:19:12.535Z,1455.00
2023-04-15T05:20:12.517Z,1454.00
2023-04-15T05:21:12.508Z,1454.00
2023-04-15T05:22:12.513Z,1452.00
2023-04-15T05:23:12.494Z,1449.00
2023-04-15T05:24:12.490Z,1449.00
2023-04-15T05:25:12.484Z,1451.00
2023-04-15T05:26:12.472Z,1449.00
2023-04-15T05:27:12.482Z,1451.00
2023-04-15T05:28:12.462Z,1453.00
2023-04-15T05:29:12.468Z,1450.00
2023-04-15T05:30:13.759Z,1446.00
2023-04-15T05:31:12.467Z,1446.00
2023-04-15T05:32:12.418Z,1443.00
2023-04-15T05:33:12.403Z,1441.00
2023-04-15T05:34:12.385Z,1440.00
2023-04-15T05:35:12.388Z,1438.00
2023-04-15T05:36:12.384Z,1436.00
2023-04-15T05:37:12.384Z,1434.00
2023-04-15T05:38:12.387Z,1433.00
2023-04-15T05:39:12.374Z,1432.00
2023-04-15T05:40:12.401Z,1433.00
2023-04-15T05:41:12.428Z,1432.00
2023-04-15T05:42:12.420Z,1435.00
2023-04-15T05:43:12.418Z,1436.00
2023-04-15T05:44:12.408Z,1433.00
2023-04-15T05:45:12.418Z,1429.00
2023-04-15T05:46:12.507Z,1429.00
2023-04-15T05:47:12.419Z,1432.00
2023-04-15T05:48:12.415Z,1432.00
2023-04-15T05:49:12.406Z,1432.00
2023-04-15T05:50:12.425Z,1434.00
2023-04-15T05:51:12.421Z,1432.00
2023-04-15T05:52:12.411Z,1429.00
2023-04-15T05:53:12.417Z,1426.00
2023-04-15T05:54:12.416Z,1426.00
2023-04-15T05:55:12.411Z,1421.00
2023-04-15T05:56:12.437Z,1420.00
2023-04-15T05:57:12.422Z,1418.00
2023-04-15T05:58:12.430Z,1417.00
2023-04-15T05:59:12.426Z,1416.00
2023-04-15T06:00:12.427Z,1415.00
2023-04-15T06:01:12.452Z,1415.00
2023-04-15T06:02:12.513Z,1414.00
2023-04-15T06:03:12.586Z,1414.00
2023-04-15T06:04:12.656Z,1409.00
2023-04-15T06:05:13.117Z,1408.00
2023-04-15T06:06:12.511Z,1407.00
2023-04-15T06:07:12.508Z,1406.00
2023-04-15T06:08:12.527Z,1408.00
2023-04-15T06:09:12.501Z,1412.00
2023-04-15T06:10:12.539Z,1410.00
2023-04-15T06:11:12.577Z,1412.00
2023-04-15T06:12:12.626Z,1411.00
2023-04-15T06:13:12.645Z,1408.00
2023-04-15T06:14:12.639Z,1407.00
2023-04-15T06:15:12.650Z,1408.00
2023-04-15T06:16:12.685Z,1406.00
2023-04-15T06:17:12.638Z,1403.00
2023-04-15T06:18:12.643Z,1405.00
2023-04-15T06:19:12.667Z,1405.00
2023-04-15T06:20:12.630Z,1406.00
2023-04-15T06:21:12.643Z,1406.00
2023-04-15T06:22:14.631Z,1406.00
2023-04-15T06:23:12.693Z,1404.00
2023-04-15T06:24:12.743Z,1401.00
2023-04-15T06:25:12.743Z,1400.00
2023-04-15T06:26:12.769Z,1397.00
2023-04-15T06:27:12.773Z,1397.00
2023-04-15T06:28:12.772Z,1397.00
2023-04-15T06:29:12.766Z,1398.00
2023-04-15T06:30:12.780Z,1398.00
2023-04-15T06:31:12.806Z,1399.00
2023-04-15T06:32:13.133Z,1400.00
2023-04-15T06:33:12.796Z,1397.00
2023-04-15T06:34:12.810Z,1396.00
2023-04-15T06:35:12.832Z,1391.00
2023-04-15T06:36:12.859Z,1387.00
2023-04-15T06:37:12.854Z,1385.00
2023-04-15T06:38:12.862Z,1386.00
2023-04-15T06:39:12.863Z,1383.00
2023-04-15T06:40:12.875Z,1381.00
2023-04-15T06:41:12.871Z,1377.00
2023-04-15T06:42:12.884Z,1376.00
2023-04-15T06:43:12.900Z,1374.00
2023-04-15T06:44:12.923Z,1378.00
2023-04-15T06:45:12.967Z,1377.00
2023-04-15T06:46:13.023Z,1375.00
2023-04-15T06:47:13.003Z,1375.00
2023-04-15T06:48:13.029Z,1375.00
2023-04-15T06:49:13.056Z,1378.00
2023-04-15T06:50:13.640Z,1376.00
2023-04-15T06:51:13.050Z,1374.00
2023-04-15T06:52:13.060Z,1373.00
2023-04-15T06:53:13.076Z,1374.00
2023-04-15T06:54:13.110Z,1375.00
2023-04-15T06:55:13.147Z,1374.00
2023-04-15T06:56:13.197Z,1375.00
2023-04-15T06:57:13.213Z,1371.00
2023-04-15T06:58:13.281Z,1367.00
2023-04-15T06:59:13.307Z,1366.00
2023-04-15T07:00:13.337Z,1368.00
2023-04-15T07:01:13.402Z,1367.00
2023-04-15T07:02:13.451Z,1367.00
2023-04-15T07:03:13.524Z,1369.00
2023-04-15T07:04:13.493Z,1362.00
2023-04-15T07:05:13.490Z,1362.00
2023-04-15T07:06:13.455Z,1358.00
2023-04-15T07:07:13.482Z,1360.00
2023-04-15T07:08:13.503Z,1362.00
2023-04-15T07:09:13.530Z,1363.00
2023-04-15T07:10:13.540Z,1361.00
2023-04-15T07:11:13.570Z,1361.00
2023-04-15T07:12:13.601Z,1358.00
2023-04-15T07:13:13.613Z,1357.00
2023-04-15T07:14:13.613Z,1357.00
2023-04-15T07:15:13.657Z,1355.00
2023-04-15T07:16:13.738Z,1356.00
2023-04-15T07:17:13.753Z,1358.00
2023-04-15T07:18:13.708Z,1356.00
2023-04-15T07:19:13.741Z,1358.00
2023-04-15T07:20:15.656Z,1357.00
2023-04-15T07:21:13.823Z,1357.00
2023-04-15T07:22:13.818Z,1356.00
2023-04-15T07:23:13.829Z,1356.00
2023-04-15T07:24:13.801Z,1353.00
2023-04-15T07:25:13.803Z,1351.00
2023-04-15T07:26:13.788Z,1350.00
2023-04-15T07:27:13.786Z,1348.00
2023-04-15T07:28:13.792Z,1348.00
2023-04-15T07:29:13.770Z,1347.00
2023-04-15T07:30:13.788Z,1347.00
2023-04-15T07:31:13.828Z,1349.00
2023-04-15T07:32:13.771Z,1348.00
2023-04-15T07:33:13.766Z,1347.00
2023-04-15T07:34:13.785Z,1342.00
2023-04-15T07:35:13.765Z,1341.00
2023-04-15T07:36:13.804Z,1340.00
2023-04-15T07:37:13.832Z,1334.00
2023-04-15T07:38:13.877Z,1335.00
2023-04-15T07:39:13.906Z,1332.00
2023-04-15T07:40:13.912Z,1329.00
2023-04-15T07:41:13.919Z,1327.00
2023-04-15T07:42:13.918Z,1329.00
2023-04-15T07:43:13.907Z,1329.00
2023-04-15T07:44:13.910Z,1328.00
2023-04-15T07:45:13.936Z,1322.00
2023-04-15T07:46:13.949Z,1322.00
2023-04-15T07:47:13.902Z,1323.00
2023-04-15T07:48:13.904Z,1321.00
2023-04-15T07:49:13.894Z,1323.00
2023-04-15T07:50:13.893Z,1322.00
2023-04-15T07:51:13.917Z,1319.00
2023-04-15T07:52:13.947Z,1320.00
2023-04-15T07:53:13.968Z,1320.00
2023-04-15T07:54:13.973Z,1320.00
2023-04-15T07:55:13.998Z,1315.00
2023-04-15T07:56:14.016Z,1313.00
2023-04-15T07:57:14.006Z,1315.00
2023-04-15T07:58:14.001Z,1313.00
2023-04-15T07:59:14.032Z,1311.00
2023-04-15T08:00:14.051Z,1310.00
2023-04-15T08:01:14.702Z,1309.00
2023-04-15T08:02:14.182Z,1307.00
2023-04-15T08:03:14.232Z,1304.00
2023-04-15T08:04:14.278Z,1302.00
2023-04-15T08:05:14.275Z,1301.00
2023-04-15T08:06:14.192Z,1297.00
2023-04-15T08:07:14.190Z,1296.00
2023-04-15T08:08:14.213Z,1293.00
2023-04-15T08:09:14.212Z,1291.00
2023-04-15T08:10:14.224Z,1290.00
2023-04-15T08:11:14.234Z,1289.00
2023-04-15T08:12:14.258Z,1289.00
2023-04-15T08:13:14.291Z,1286.00
2023-04-15T08:14:14.306Z,1286.00
2023-04-15T08:15:14.331Z,1287.00
2023-04-15T08:16:14.439Z,1286.00
2023-04-15T08:17:14.338Z,1287.00
2023-04-15T08:18:14.339Z,1287.00
2023-04-15T08:19:14.369Z,1287.00
2023-04-15T08:20:14.365Z,1286.00
2023-04-15T08:21:14.389Z,1289.00
2023-04-15T08:22:18.036Z,1287.00
2023-04-15T08:23:14.377Z,1286.00
2023-04-15T08:24:14.362Z,1288.00
2023-04-15T08:25:14.366Z,1288.00
2023-04-15T08:26:14.382Z,1287.00
2023-04-15T08:27:14.361Z,1284.00
2023-04-15T08:28:14.369Z,1281.00
2023-04-15T08:29:14.355Z,1279.00
2023-04-15T08:30:15.169Z,1275.00
2023-04-15T08:31:15.453Z,1274.00
2023-04-15T08:32:14.357Z,1275.00
2023-04-15T08:33:14.338Z,1278.00
2023-04-15T08:34:14.350Z,1282.00
2023-04-15T08:35:14.316Z,1277.00
2023-04-15T08:36:14.310Z,1276.00
2023-04-15T08:37:14.309Z,1277.00
2023-04-15T08:38:14.303Z,1276.00
2023-04-15T08:39:14.290Z,1276.00
2023-04-15T08:40:14.330Z,1273.00
2023-04-15T08:41:14.290Z,1269.00
2023-04-15T08:42:15.174Z,1269.00
2023-04-15T08:43:14.278Z,1267.00
2023-04-15T08:44:14.278Z,1264.00
2023-04-15T08:45:14.279Z,1265.00
2023-04-15T08:46:14.265Z,1263.00
2023-04-15T08:47:14.269Z,1263.00
2023-04-15T08:48:14.261Z,1265.00
2023-04-15T08:49:14.249Z,1264.00
2023-04-15T08:50:14.246Z,1263.00
2023-04-15T08:51:14.288Z,1262.00
2023-04-15T08:52:14.225Z,1264.00
2023-04-15T08:53:14.228Z,1263.00
2023-04-15T08:54:14.202Z,1262.00
2023-04-15T08:55:14.227Z,1264.00
2023-04-15T08:56:14.183Z,1262.00
2023-04-15T08:57:14.177Z,1260.00
2023-04-15T08:58:14.173Z,1257.00
2023-04-15T08:59:14.163Z,1259.00
2023-04-15T09:00:14.153Z,1257.00
2023-04-15T09:01:14.175Z,1254.00
2023-04-15T09:02:14.177Z,1254.00
2023-04-15T09:03:14.195Z,1253.00
2023-04-15T09:04:14.237Z,1254.00
2023-04-15T09:05:14.194Z,1250.00
2023-04-15T09:06:14.246Z,1248.00
2023-04-15T09:07:14.264Z,1246.00
2023-04-15T09:08:14.331Z,1244.00
2023-04-15T09:09:14.393Z,1242.00
2023-04-15T09:10:14.361Z,1242.00
2023-04-15T09:11:14.375Z,1242.00
2023-04-15T09:12:14.414Z,1245.00
2023-04-15T09:13:15.179Z,1246.00
2023-04-15T09:14:14.472Z,1244.00
2023-04-15T09:15:14.499Z,1246.00
2023-04-15T09:16:14.555Z,1244.00
2023-04-15T09:17:14.582Z,1246.00
2023-04-15T09:18:14.662Z,1248.00
2023-04-15T09:19:14.666Z,1250.00
2023-04-15T09:20:14.716Z,1247.00
2023-04-15T09:21:14.744Z,1247.00
2023-04-15T09:22:14.790Z,1248.00
2023-04-15T09:23:14.837Z,1246.00
2023-04-15T09:24:14.876Z,1248.00
2023-04-15T09:25:14.913Z,1244.00
2023-04-15T09:26:14.973Z,1242.00
2023-04-15T09:27:15.012Z,1242.00
2023-04-15T09:28:15.073Z,1240.00
2023-04-15T09:29:15.097Z,1238.00
2023-04-15T09:30:15.110Z,1237.00
2023-04-15T09:31:15.149Z,1235.00
2023-04-15T09:32:15.138Z,1236.00
2023-04-15T09:33:15.161Z,1235.00
2023-04-15T09:34:15.186Z,1236.00
2023-04-15T09:35:15.203Z,1234.00
2023-04-15T09:36:15.241Z,1236.00
2023-04-15T09:37:31.304Z,1236.00
2023-04-15T09:38:16.245Z,1236.00
2023-04-15T09:39:15.212Z,1236.00
2023-04-15T09:40:15.214Z,1234.00
2023-04-15T09:41:15.203Z,1233.00
2023-04-15T09:42:15.189Z,1230.00
2023-04-15T09:43:15.190Z,1230.00
2023-04-15T09:44:15.178Z,1226.00
2023-04-15T09:45:15.171Z,1221.00
2023-04-15T09:46:15.201Z,1218.00
2023-04-15T09:47:15.176Z,1220.00
2023-04-15T09:48:15.156Z,1223.00
2023-04-15T09:49:15.167Z,1220.00
2023-04-15T09:50:15.177Z,1219.00
2023-04-15T09:51:15.195Z,1224.00
2023-04-15T09:52:15.199Z,1224.00
2023-04-15T09:53:15.216Z,1223.00
2023-04-15T09:54:15.235Z,1220.00
2023-04-15T09:55:15.230Z,1219.00
2023-04-15T09:56:15.246Z,1217.00
2023-04-15T09:57:15.240Z,1214.00
2023-04-15T09:58:16.187Z,1211.00
2023-04-15T09:59:15.278Z,1211.00
2023-04-15T10:00:15.321Z,1212.00
2023-04-15T10:01:15.333Z,1213.00
2023-04-15T10:02:15.372Z,1214.00
2023-04-15T10:03:15.451Z,1213.00
2023-04-15T10:04:15.502Z,1213.00
2023-04-15T10:05:15.371Z,1210.00
2023-04-15T10:06:15.378Z,1204.00
2023-04-15T10:07:15.387Z,1204.00
2023-04-15T10:08:15.397Z,1201.00
2023-04-15T10:09:15.432Z,1203.00
2023-04-15T10:10:15.469Z,1204.00
2023-04-15T10:11:15.460Z,1206.00
2023-04-15T10:12:15.460Z,1207.00
2023-04-15T10:13:15.461Z,1207.00
2023-04-15T10:14:15.457Z,1206.00
2023-04-15T10:15:15.460Z,1206.00
2023-04-15T10:16:15.526Z,1206.00
2023-04-15T10:17:15.491Z,1204.00
2023-04-15T10:18:15.514Z,1203.00
2023-04-15T10:19:15.509Z,1204.00
2023-04-15T10:20:15.566Z,1199.00
2023-04-15T10:21:15.500Z,1198.00
2023-04-15T10:22:15.538Z,1198.00
2023-04-15T10:23:15.544Z,1193.00
2023-04-15T10:24:15.548Z,1193.00
2023-04-15T10:25:15.570Z,1197.00
2023-04-15T10:26:15.552Z,1198.00
2023-04-15T10:27:15.575Z,1198.00
2023-04-15T10:28:15.613Z,1197.00
2023-04-15T10:29:15.641Z,1194.00
2023-04-15T10:30:15.687Z,1192.00
2023-04-15T10:31:15.746Z,1192.00
2023-04-15T10:32:15.755Z,1191.00
2023-04-15T10:33:15.756Z,1194.00
2023-04-15T10:34:15.766Z,1194.00
2023-04-15T10:35:15.763Z,1194.00
2023-04-15T10:36:15.768Z,1196.00
2023-04-15T10:37:15.782Z,1196.00
2023-04-15T10:38:15.804Z,1194.00
2023-04-15T10:39:15.812Z,1194.00
2023-04-15T10:40:15.825Z,1194.00
2023-04-15T10:41:19.931Z,1193.00
2023-04-15T10:42:15.839Z,1192.00
2023-04-15T10:43:15.831Z,1191.00
2023-04-15T10:44:15.841Z,1188.00
2023-04-15T10:45:15.821Z,1187.00
2023-04-15T10:46:15.880Z,1184.00
2023-04-15T10:47:15.807Z,1184.00
2023-04-15T10:48:15.811Z,1184.00
2023-04-15T10:49:15.807Z,1188.00
2023-04-15T10:50:15.802Z,1188.00
2023-04-15T10:51:16.801Z,1188.00
2023-04-15T10:52:15.785Z,1189.00
2023-04-15T10:53:15.782Z,1188.00
2023-04-15T10:54:15.792Z,1187.00
2023-04-15T10:55:15.803Z,1186.00
2023-04-15T10:56:15.772Z,1185.00
2023-04-15T10:57:15.773Z,1185.00
2023-04-15T10:58:15.772Z,1182.00
2023-04-15T10:59:15.743Z,1179.00
2023-04-15T11:00:15.723Z,1184.00
2023-04-15T11:01:15.735Z,1181.00
2023-04-15T11:02:15.943Z,1182.00
2023-04-15T11:03:15.852Z,1181.00
2023-04-15T11:04:15.830Z,1183.00
2023-04-15T11:05:15.756Z,1184.00
2023-04-15T11:06:15.789Z,1185.00
2023-04-15T11:07:15.818Z,1183.00
2023-04-15T11:08:15.882Z,1180.00
2023-04-15T11:09:15.931Z,1180.00
2023-04-15T11:10:15.978Z,1177.00
2023-04-15T11:11:16.046Z,1177.00
2023-04-15T11:12:16.093Z,1174.00
2023-04-15T11:13:16.143Z,1170.00
2023-04-15T11:14:16.256Z,1167.00
2023-04-15T11:15:16.235Z,1166.00
2023-04-15T11:16:16.337Z,1164.00
2023-04-15T11:17:16.327Z,1162.00
2023-04-15T11:18:16.385Z,1162.00
2023-04-15T11:19:16.444Z,1161.00
2023-04-15T11:20:16.505Z,1162.00
2023-04-15T11:21:16.548Z,1160.00
2023-04-15T11:22:16.594Z,1161.00
2023-04-15T11:23:17.216Z,1162.00
2023-04-15T11:24:16.708Z,1161.00
2023-04-15T11:25:16.753Z,1159.00
2023-04-15T11:26:16.777Z,1161.00
2023-04-15T11:27:16.811Z,1159.00
2023-04-15T11:28:16.823Z,1163.00
2023-04-15T11:29:16.837Z,1162.00
2023-04-15T11:30:16.858Z,1163.00
2023-04-15T11:31:16.977Z,1165.00
2023-04-15T11:32:17.002Z,1165.00
2023-04-15T11:33:16.949Z,1170.00
2023-04-15T11:34:16.967Z,1167.00
2023-04-15T11:35:17.015Z,1169.00
2023-04-15T11:36:17.005Z,1169.00
2023-04-15T11:37:16.994Z,1166.00
2023-04-15T11:38:17.006Z,1161.00
2023-04-15T11:39:17.012Z,1161.00
2023-04-15T11:40:17.033Z,1159.00
2023-04-15T11:41:17.022Z,1157.00
2023-04-15T11:42:17.050Z,1159.00
2023-04-15T11:43:17.042Z,1162.00
2023-04-15T11:44:17.027Z,1162.00
2023-04-15T11:45:17.032Z,1162.00
2023-04-15T11:46:17.139Z,1160.00
2023-04-15T11:47:17.015Z,1159.00
2023-04-15T11:48:17.013Z,1157.00
2023-04-15T11:49:16.997Z,1158.00
2023-04-15T11:50:16.983Z,1155.00
2023-04-15T11:51:17.004Z,1154.00
2023-04-15T11:52:16.977Z,1153.00
2023-04-15T11:53:16.972Z,1152.00
2023-04-15T11:54:16.959Z,1151.00
2023-04-15T11:55:16.950Z,1148.00
2023-04-15T11:56:16.943Z,1149.00
2023-04-15T11:57:16.933Z,1151.00
2023-04-15T11:58:18.720Z,1152.00
2023-04-15T11:59:16.910Z,1152.00
2023-04-15T12:00:16.913Z,1149.00
2023-04-15T12:01:16.923Z,1150.00
2023-04-15T12:02:17.031Z,1147.00
2023-04-15T12:03:17.296Z,1142.00
2023-04-15T12:04:17.109Z,1142.00
2023-04-15T12:05:17.143Z,1143.00